sensor_id;sensor_type;location;lat;lon;timestamp;pressure;altitude;pressure_sealevel;temperature;humidity
63343;BME280;49465;57.664;39.686;2023-02-13T00:01:34;100414.22;;;-5.91;45.89
63343;BME280;49465;57.664;39.686;2023-02-13T00:04:03;100411.66;;;-5.93;45.83
63343;BME280;49465;57.664;39.686;2023-02-13T00:06:29;100402.34;;;-5.95;45.92
63343;BME280;49465;57.664;39.686;2023-02-13T00:08:56;100406.56;;;-5.96;45.82
63343;BME280;49465;57.664;39.686;2023-02-13T00:11:25;100398.06;;;-6.00;45.99
63343;BME280;49465;57.664;39.686;2023-02-13T00:13:54;100400.75;;;-7.01;46.20
63343;BME280;49465;57.664;39.686;2023-02-13T00:16:21;100388.56;;;-6.24;46.44
63343;BME280;49465;57.664;39.686;2023-02-13T00:18:50;100387.75;;;-6.15;46.19
63343;BME280;49465;57.664;39.686;2023-02-13T00:21:19;100380.09;;;-6.12;46.10
63343;BME280;49465;57.664;39.686;2023-02-13T00:23:46;100373.31;;;-6.11;46.15
63343;BME280;49465;57.664;39.686;2023-02-13T00:26:14;100363.09;;;-6.13;46.12
63343;BME280;49465;57.664;39.686;2023-02-13T00:28:41;100366.50;;;-6.12;45.97
63343;BME280;49465;57.664;39.686;2023-02-13T00:31:13;100363.09;;;-6.14;46.18
63343;BME280;49465;57.664;39.686;2023-02-13T00:33:44;100352.84;;;-6.16;46.22
63343;BME280;49465;57.664;39.686;2023-02-13T00:36:28;100340.09;;;-6.16;46.08
63343;BME280;49465;57.664;39.686;2023-02-13T00:38:58;100335.81;;;-6.20;46.31
63343;BME280;49465;57.664;39.686;2023-02-13T00:41:25;100329.88;;;-6.21;46.28
63343;BME280;49465;57.664;39.686;2023-02-13T00:43:57;100323.03;;;-6.22;46.25
63343;BME280;49465;57.664;39.686;2023-02-13T00:46:30;100322.19;;;-6.22;46.08
63343;BME280;49465;57.664;39.686;2023-02-13T00:49:07;100322.19;;;-6.25;45.98
63343;BME280;49465;57.664;39.686;2023-02-13T00:51:36;100317.06;;;-6.25;46.03
63343;BME280;49465;57.664;39.686;2023-02-13T00:54:05;100316.22;;;-6.27;46.11
63343;BME280;49465;57.664;39.686;2023-02-13T00:56:34;100312.81;;;-6.29;46.11
63343;BME280;49465;57.664;39.686;2023-02-13T00:59:00;100308.56;;;-6.29;46.36
63343;BME280;49465;57.664;39.686;2023-02-13T01:01:29;100303.47;;;-6.30;45.86
63343;BME280;49465;57.664;39.686;2023-02-13T01:03:56;100296.63;;;-6.31;46.16
63343;BME280;49465;57.664;39.686;2023-02-13T01:06:23;100288.13;;;-6.33;46.25
63343;BME280;49465;57.664;39.686;2023-02-13T01:08:49;100282.16;;;-6.34;46.02
63343;BME280;49465;57.664;39.686;2023-02-13T01:11:16;100276.22;;;-6.34;46.04
63343;BME280;49465;57.664;39.686;2023-02-13T01:13:47;100275.38;;;-6.37;46.17
63343;BME280;49465;57.664;39.686;2023-02-13T01:16:13;100271.94;;;-6.36;46.42
63343;BME280;49465;57.664;39.686;2023-02-13T01:18:43;100266.00;;;-6.38;46.06
63343;BME280;49465;57.664;39.686;2023-02-13T01:21:18;100260.88;;;-6.38;46.34
63343;BME280;49465;57.664;39.686;2023-02-13T01:23:46;100260.88;;;-6.38;46.32
63343;BME280;49465;57.664;39.686;2023-02-13T01:26:23;100253.22;;;-6.39;46.32
63343;BME280;49465;57.664;39.686;2023-02-13T01:28:53;100248.13;;;-6.41;46.48
63343;BME280;49465;57.664;39.686;2023-02-13T01:31:20;100245.59;;;-6.41;46.69
63343;BME280;49465;57.664;39.686;2023-02-13T01:33:54;100245.59;;;-6.41;46.21
63343;BME280;49465;57.664;39.686;2023-02-13T01:36:20;100232.19;;;-7.48;47.59
63343;BME280;49465;57.664;39.686;2023-02-13T01:38:56;100223.38;;;-6.60;46.89
63343;BME280;49465;57.664;39.686;2023-02-13T01:41:27;100226.81;;;-6.47;46.65
63343;BME280;49465;57.664;39.686;2023-02-13T01:43:59;100217.50;;;-6.44;46.63
63343;BME280;49465;57.664;39.686;2023-02-13T01:46:29;100220.91;;;-6.42;46.69
63343;BME280;49465;57.664;39.686;2023-02-13T01:49:01;100205.59;;;-6.42;46.59
63343;BME280;49465;57.664;39.686;2023-02-13T01:51:39;100206.44;;;-6.40;46.29
63343;BME280;49465;57.664;39.686;2023-02-13T01:54:15;100196.22;;;-6.41;46.33
63343;BME280;49465;57.664;39.686;2023-02-13T01:56:50;100203.03;;;-6.42;46.61
63343;BME280;49465;57.664;39.686;2023-02-13T01:59:28;100195.41;;;-6.39;46.49
63343;BME280;49465;57.664;39.686;2023-02-13T02:02:00;100196.25;;;-6.38;46.45
63343;BME280;49465;57.664;39.686;2023-02-13T02:04:36;100200.09;;;-7.25;49.42
63343;BME280;49465;57.664;39.686;2023-02-13T02:07:25;100193.63;;;-6.55;48.63
63343;BME280;49465;57.664;39.686;2023-02-13T02:09:59;100174.13;;;-6.44;47.58
63343;BME280;49465;57.664;39.686;2023-02-13T02:12:51;100179.22;;;-6.39;47.30
63343;BME280;49465;57.664;39.686;2023-02-13T02:15:23;100169.03;;;-6.38;47.36
63343;BME280;49465;57.664;39.686;2023-02-13T02:17:58;100171.59;;;-6.36;47.58
63343;BME280;49465;57.664;39.686;2023-02-13T02:29:29;100167.34;;;-6.32;47.51
63343;BME280;49465;57.664;39.686;2023-02-13T02:32:02;100164.78;;;-6.29;47.05
63343;BME280;49465;57.664;39.686;2023-02-13T02:48:37;100144.38;;;-6.22;47.00
63343;BME280;49465;57.664;39.686;2023-02-13T02:54:26;100137.59;;;-6.17;47.03
63343;BME280;49465;57.664;39.686;2023-02-13T02:57:19;100129.94;;;-6.17;47.65
63343;BME280;49465;57.664;39.686;2023-02-13T02:59:49;100127.41;;;-6.15;47.97
63343;BME280;49465;57.664;39.686;2023-02-13T03:02:35;100124.84;;;-6.12;47.49
63343;BME280;49465;57.664;39.686;2023-02-13T03:05:31;100125.72;;;-6.11;47.83
63343;BME280;49465;57.664;39.686;2023-02-13T03:08:21;100118.91;;;-6.09;46.88
63343;BME280;49465;57.664;39.686;2023-02-13T03:11:08;100107.81;;;-6.07;47.36
63343;BME280;49465;57.664;39.686;2023-02-13T03:13:53;100100.19;;;-6.05;48.07
63343;BME280;49465;57.664;39.686;2023-02-13T03:16:24;100095.06;;;-6.05;49.55
63343;BME280;49465;57.664;39.686;2023-02-13T03:19:55;100076.34;;;-6.01;50.46
63343;BME280;49465;57.664;39.686;2023-02-13T03:28:49;100088.25;;;-5.97;47.41
63343;BME280;49465;57.664;39.686;2023-02-13T03:31:57;100075.50;;;-6.05;48.59
63343;BME280;49465;57.664;39.686;2023-02-13T03:34:33;100068.69;;;-6.00;49.56
63343;BME280;49465;57.664;39.686;2023-02-13T03:37:49;100057.63;;;-5.97;49.27
63343;BME280;49465;57.664;39.686;2023-02-13T03:40:38;100044.81;;;-5.92;49.87
63343;BME280;49465;57.664;39.686;2023-02-13T03:43:30;100039.72;;;-5.89;50.63
63343;BME280;49465;57.664;39.686;2023-02-13T03:46:03;100026.06;;;-5.87;49.40
63343;BME280;49465;57.664;39.686;2023-02-13T03:48:35;100019.25;;;-5.77;51.34
63343;BME280;49465;57.664;39.686;2023-02-13T03:51:39;100010.72;;;-5.68;49.27
63343;BME280;49465;57.664;39.686;2023-02-13T03:54:26;100003.09;;;-5.76;49.02
63343;BME280;49465;57.664;39.686;2023-02-13T03:57:19;99987.75;;;-5.79;50.92
63343;BME280;49465;57.664;39.686;2023-02-13T04:00:14;99987.72;;;-5.64;50.67
63343;BME280;49465;57.664;39.686;2023-02-13T04:06:11;99977.41;;;-5.44;48.48
63343;BME280;49465;57.664;39.686;2023-02-13T04:08:41;99976.53;;;-5.41;48.53
63343;BME280;49465;57.664;39.686;2023-02-13T04:11:16;99976.50;;;-5.33;48.96
63343;BME280;49465;57.664;39.686;2023-02-13T04:13:56;99978.19;;;-5.29;48.39
63343;BME280;49465;57.664;39.686;2023-02-13T04:16:31;99985.91;;;-5.34;49.35
63343;BME280;49465;57.664;39.686;2023-02-13T04:19:02;99990.13;;;-5.27;48.19
63343;BME280;49465;57.664;39.686;2023-02-13T04:21:38;99982.69;;;-5.94;52.10
63343;BME280;49465;57.664;39.686;2023-02-13T04:24:08;99976.50;;;-5.32;49.18
63343;BME280;49465;57.664;39.686;2023-02-13T04:26:40;99979.84;;;-5.18;48.63
63343;BME280;49465;57.664;39.686;2023-02-13T04:29:07;99972.13;;;-5.07;48.29
63343;BME280;49465;57.664;39.686;2023-02-13T04:31:36;99967.84;;;-5.03;48.20
63343;BME280;49465;57.664;39.686;2023-02-13T04:34:05;99934.69;;;-5.17;48.16
63343;BME280;49465;57.664;39.686;2023-02-13T04:36:34;99955.88;;;-4.97;49.75
63343;BME280;49465;57.664;39.686;2023-02-13T04:39:00;99950.75;;;-4.98;50.40
63343;BME280;49465;57.664;39.686;2023-02-13T04:41:27;99943.91;;;-4.96;50.60
63343;BME280;49465;57.664;39.686;2023-02-13T04:43:53;99931.97;;;-4.91;50.09
63343;BME280;49465;57.664;39.686;2023-02-13T04:46:19;99930.25;;;-4.87;50.12
63343;BME280;49465;57.664;39.686;2023-02-13T04:48:46;99926.78;;;-4.83;49.65
63343;BME280;49465;57.664;39.686;2023-02-13T04:51:12;99931.06;;;-4.84;49.53
63343;BME280;49465;57.664;39.686;2023-02-13T04:53:39;99942.94;;;-4.77;48.79
63343;BME280;49465;57.664;39.686;2023-02-13T04:56:05;99945.53;;;-4.80;48.90
63343;BME280;49465;57.664;39.686;2023-02-13T04:58:34;99930.13;;;-4.77;48.02
63343;BME280;49465;57.664;39.686;2023-02-13T05:01:00;99941.19;;;-4.70;48.13
63343;BME280;49465;57.664;39.686;2023-02-13T05:03:27;99942.03;;;-4.68;48.35
63343;BME280;49465;57.664;39.686;2023-02-13T05:05:53;99929.22;;;-4.66;48.58
63343;BME280;49465;57.664;39.686;2023-02-13T05:08:20;99934.09;;;-5.73;52.13
63343;BME280;49465;57.664;39.686;2023-02-13T05:10:52;99941.25;;;-4.81;49.81
63343;BME280;49465;57.664;39.686;2023-02-13T05:13:18;99933.47;;;-4.65;49.65
63343;BME280;49465;57.664;39.686;2023-02-13T05:15:47;99941.97;;;-4.59;49.01
63343;BME280;49465;57.664;39.686;2023-02-13T05:18:16;99938.53;;;-4.56;49.11
63343;BME280;49465;57.664;39.686;2023-02-13T05:20:43;99936.75;;;-4.51;49.43
63343;BME280;49465;57.664;39.686;2023-02-13T05:23:13;99941.88;;;-4.51;48.69
63343;BME280;49465;57.664;39.686;2023-02-13T05:25:49;99938.47;;;-4.47;49.01
63343;BME280;49465;57.664;39.686;2023-02-13T05:28:16;99919.69;;;-4.49;50.02
63343;BME280;49465;57.664;39.686;2023-02-13T05:31:00;99918.81;;;-4.46;50.47
63343;BME280;49465;57.664;39.686;2023-02-13T05:33:27;99929.06;;;-4.45;49.53
63343;BME280;49465;57.664;39.686;2023-02-13T05:35:56;99927.31;;;-4.43;49.20
63343;BME280;49465;57.664;39.686;2023-02-13T05:38:22;99928.13;;;-4.39;48.95
63343;BME280;49465;57.664;39.686;2023-02-13T05:40:48;99934.94;;;-4.37;48.50
63343;BME280;49465;57.664;39.686;2023-02-13T05:43:17;99933.22;;;-4.36;48.98
63343;BME280;49465;57.664;39.686;2023-02-13T05:45:44;99922.97;;;-4.33;48.30
63343;BME280;49465;57.664;39.686;2023-02-13T05:48:10;99920.38;;;-4.30;48.47
63343;BME280;49465;57.664;39.686;2023-02-13T05:50:37;99923.09;;;-4.48;48.82
63343;BME280;49465;57.664;39.686;2023-02-13T05:53:08;99912.88;;;-4.53;49.63
63343;BME280;49465;57.664;39.686;2023-02-13T05:55:34;99912.22;;;-4.73;50.46
63343;BME280;49465;57.664;39.686;2023-02-13T05:58:00;99915.56;;;-4.65;50.03
63343;BME280;49465;57.664;39.686;2023-02-13T06:00:29;99923.94;;;-4.48;50.32
63343;BME280;49465;57.664;39.686;2023-02-13T06:02:58;99913.78;;;-4.57;50.66
63343;BME280;49465;57.664;39.686;2023-02-13T06:05:24;99915.16;;;-5.29;54.62
63343;BME280;49465;57.664;39.686;2023-02-13T06:07:55;99929.97;;;-4.52;51.58
63343;BME280;49465;57.664;39.686;2023-02-13T06:10:24;99918.75;;;-4.40;50.90
63343;BME280;49465;57.664;39.686;2023-02-13T06:12:51;99904.16;;;-4.29;50.87
63343;BME280;49465;57.664;39.686;2023-02-13T06:15:20;99894.63;;;-4.16;51.15
63343;BME280;49465;57.664;39.686;2023-02-13T06:17:46;99879.34;;;-4.24;50.43
63343;BME280;49465;57.664;39.686;2023-02-13T06:20:13;99878.28;;;-4.04;50.44
63343;BME280;49465;57.664;39.686;2023-02-13T06:22:39;99874.81;;;-4.00;50.44
63343;BME280;49465;57.664;39.686;2023-02-13T06:25:06;99867.84;;;-3.87;50.02
63343;BME280;49465;57.664;39.686;2023-02-13T06:27:34;99864.44;;;-3.89;49.87
63343;BME280;49465;57.664;39.686;2023-02-13T06:30:04;99857.50;;;-3.78;49.70
63343;BME280;49465;57.664;39.686;2023-02-13T06:32:31;99863.47;;;-3.79;50.31
63343;BME280;49465;57.664;39.686;2023-02-13T06:34:59;99863.06;;;-4.18;51.91
63343;BME280;49465;57.664;39.686;2023-02-13T06:37:26;99861.41;;;-4.21;52.84
63343;BME280;49465;57.664;39.686;2023-02-13T06:39:52;99868.16;;;-4.15;52.12
63343;BME280;49465;57.664;39.686;2023-02-13T06:42:21;99861.22;;;-4.04;52.60
63343;BME280;49465;57.664;39.686;2023-02-13T06:44:55;99857.63;;;-4.72;55.51
63343;BME280;49465;57.664;39.686;2023-02-13T06:47:25;99855.97;;;-3.94;52.82
63343;BME280;49465;57.664;39.686;2023-02-13T06:49:54;99853.28;;;-3.82;52.26
63343;BME280;49465;57.664;39.686;2023-02-13T06:52:20;99860.88;;;-3.78;52.46
63343;BME280;49465;57.664;39.686;2023-02-13T06:54:49;99852.31;;;-3.75;52.25
63343;BME280;49465;57.664;39.686;2023-02-13T06:57:16;99849.66;;;-3.67;52.65
63343;BME280;49465;57.664;39.686;2023-02-13T06:59:46;99846.25;;;-3.69;52.46
63343;BME280;49465;57.664;39.686;2023-02-13T07:02:15;99839.41;;;-3.69;52.51
63343;BME280;49465;57.664;39.686;2023-02-13T07:04:41;99836.34;;;-3.33;51.49
63343;BME280;49465;57.664;39.686;2023-02-13T07:07:11;99822.88;;;-3.45;52.06
63343;BME280;49465;57.664;39.686;2023-02-13T07:09:39;99826.06;;;-3.30;51.77
63343;BME280;49465;57.664;39.686;2023-02-13T07:12:08;99818.50;;;-3.40;52.44
63343;BME280;49465;57.664;39.686;2023-02-13T07:14:35;99818.72;;;-3.55;52.63
63343;BME280;49465;57.664;39.686;2023-02-13T07:17:06;99815.94;;;-3.41;52.77
63343;BME280;49465;57.664;39.686;2023-02-13T07:19:33;99819.72;;;-3.64;53.55
63343;BME280;49465;57.664;39.686;2023-02-13T07:21:59;99812.34;;;-3.28;53.12
63343;BME280;49465;57.664;39.686;2023-02-13T07:24:31;99809.63;;;-3.17;52.59
63343;BME280;49465;57.664;39.686;2023-02-13T07:27:04;99806.88;;;-3.08;52.17
63343;BME280;49465;57.664;39.686;2023-02-13T07:29:31;99805.53;;;-3.29;53.37
63343;BME280;49465;57.664;39.686;2023-02-13T07:31:57;99792.72;;;-3.89;56.45
63343;BME280;49465;57.664;39.686;2023-02-13T07:34:24;99793.31;;;-3.14;53.15
63343;BME280;49465;57.664;39.686;2023-02-13T07:36:58;99800.63;;;-2.90;52.50
63343;BME280;49465;57.664;39.686;2023-02-13T07:39:35;99788.06;;;-3.63;55.75
63343;BME280;49465;57.664;39.686;2023-02-13T07:42:04;99789.22;;;-3.25;54.80
63343;BME280;49465;57.664;39.686;2023-02-13T07:44:34;99793.63;;;-3.33;55.41
63343;BME280;49465;57.664;39.686;2023-02-13T07:47:02;99787.56;;;-3.27;55.52
63343;BME280;49465;57.664;39.686;2023-02-13T07:49:29;99787.94;;;-2.99;54.49
63343;BME280;49465;57.664;39.686;2023-02-13T07:51:56;99786.88;;;-2.86;54.18
63343;BME280;49465;57.664;39.686;2023-02-13T07:54:29;99782.88;;;-2.55;53.49
63343;BME280;49465;57.664;39.686;2023-02-13T07:56:55;99779.34;;;-2.48;53.08
63343;BME280;49465;57.664;39.686;2023-02-13T07:59:27;99769.06;;;-2.48;53.12
63343;BME280;49465;57.664;39.686;2023-02-13T08:01:56;99761.53;;;-2.58;53.33
63343;BME280;49465;57.664;39.686;2023-02-13T08:04:22;99763.78;;;-2.39;53.22
63343;BME280;49465;57.664;39.686;2023-02-13T08:06:48;99755.56;;;-2.16;52.38
63343;BME280;49465;57.664;39.686;2023-02-13T08:09:19;99746.66;;;-2.85;56.48
63343;BME280;49465;57.664;39.686;2023-02-13T08:12:06;99743.28;;;-2.44;53.89
63343;BME280;49465;57.664;39.686;2023-02-13T08:14:38;99740.38;;;-2.25;53.45
63343;BME280;49465;57.664;39.686;2023-02-13T08:17:05;99737.22;;;-2.40;53.97
63343;BME280;49465;57.664;39.686;2023-02-13T08:19:37;99734.13;;;-2.13;53.30
63343;BME280;49465;57.664;39.686;2023-02-13T08:22:09;99730.03;;;-2.64;56.70
63343;BME280;49465;57.664;39.686;2023-02-13T08:24:43;99720.50;;;-2.17;53.85
63343;BME280;49465;57.664;39.686;2023-02-13T08:27:13;99717.31;;;-1.89;52.96
63343;BME280;49465;57.664;39.686;2023-02-13T08:29:45;99707.50;;;-2.51;56.80
63343;BME280;49465;57.664;39.686;2023-02-13T08:32:20;99701.63;;;-1.77;53.94
63343;BME280;49465;57.664;39.686;2023-02-13T08:34:51;99699.34;;;-1.89;53.56
63343;BME280;49465;57.664;39.686;2023-02-13T08:37:18;99696.66;;;-2.64;56.87
63343;BME280;49465;57.664;39.686;2023-02-13T08:39:47;99693.88;;;-1.75;53.68
63343;BME280;49465;57.664;39.686;2023-02-13T08:42:19;99688.38;;;-1.60;53.05
63343;BME280;49465;57.664;39.686;2023-02-13T08:44:45;99690.81;;;-2.30;56.51
63343;BME280;49465;57.664;39.686;2023-02-13T08:47:12;99678.13;;;-1.62;53.67
63343;BME280;49465;57.664;39.686;2023-02-13T08:49:41;99685.38;;;-1.43;53.52
63343;BME280;49465;57.664;39.686;2023-02-13T08:52:11;99672.69;;;-2.23;56.90
63343;BME280;49465;57.664;39.686;2023-02-13T08:54:37;99676.25;;;-1.55;54.33
63343;BME280;49465;57.664;39.686;2023-02-13T08:57:07;99671.72;;;-1.45;54.33
63343;BME280;49465;57.664;39.686;2023-02-13T08:59:33;99668.91;;;-1.36;54.29
63343;BME280;49465;57.664;39.686;2023-02-13T09:02:03;99666.72;;;-1.51;54.56
63343;BME280;49465;57.664;39.686;2023-02-13T09:04:35;99662.47;;;-1.52;54.83
63343;BME280;49465;57.664;39.686;2023-02-13T09:07:04;99653.25;;;-1.97;56.95
63343;BME280;49465;57.664;39.686;2023-02-13T09:09:33;99654.72;;;-1.18;54.55
63343;BME280;49465;57.664;39.686;2023-02-13T09:12:13;99650.09;;;-1.38;55.27
63343;BME280;49465;57.664;39.686;2023-02-13T09:14:43;99661.59;;;-1.87;57.82
63343;BME280;49465;57.664;39.686;2023-02-13T09:17:12;99661.69;;;-1.22;55.83
63343;BME280;49465;57.664;39.686;2023-02-13T09:19:53;99656.78;;;-0.98;54.88
63343;BME280;49465;57.664;39.686;2023-02-13T09:22:28;99649.25;;;-1.37;57.92
63343;BME280;49465;57.664;39.686;2023-02-13T09:24:58;99647.25;;;-1.60;57.72
63343;BME280;49465;57.664;39.686;2023-02-13T09:27:32;99644.34;;;-0.82;54.82
63343;BME280;49465;57.664;39.686;2023-02-13T09:30:07;99647.59;;;-0.75;54.76
63343;BME280;49465;57.664;39.686;2023-02-13T09:32:34;99648.16;;;-0.66;54.44
63343;BME280;49465;57.664;39.686;2023-02-13T09:35:01;99651.06;;;-0.76;54.91
63343;BME280;49465;57.664;39.686;2023-02-13T09:37:30;99659.09;;;-0.89;55.69
63343;BME280;49465;57.664;39.686;2023-02-13T09:39:56;99651.00;;;-1.39;58.32
63343;BME280;49465;57.664;39.686;2023-02-13T09:42:30;99652.44;;;-1.29;58.29
63343;BME280;49465;57.664;39.686;2023-02-13T09:45:00;99650.50;;;-1.19;58.71
63343;BME280;49465;57.664;39.686;2023-02-13T09:47:43;99651.41;;;-0.59;55.90
63343;BME280;49465;57.664;39.686;2023-02-13T09:52:57;99638.88;;;-0.42;55.38
63343;BME280;49465;57.664;39.686;2023-02-13T09:55:31;99638.81;;;-1.00;58.05
63343;BME280;49465;57.664;39.686;2023-02-13T10:01:00;99638.44;;;-0.86;58.59
63343;BME280;49465;57.664;39.686;2023-02-13T10:03:48;99640.50;;;-0.69;57.69
63343;BME280;49465;57.664;39.686;2023-02-13T10:06:31;99635.47;;;-1.03;59.03
63343;BME280;49465;57.664;39.686;2023-02-13T10:11:59;99647.53;;;-0.16;55.96
63343;BME280;49465;57.664;39.686;2023-02-13T10:17:19;99634.66;;;0.12;55.32
63343;BME280;49465;57.664;39.686;2023-02-13T10:19:54;99624.59;;;-0.52;58.59
63343;BME280;49465;57.664;39.686;2023-02-13T10:22:40;99615.91;;;-0.49;58.51
63343;BME280;49465;57.664;39.686;2023-02-13T10:25:34;99611.91;;;-0.58;59.40
63343;BME280;49465;57.664;39.686;2023-02-13T10:28:13;99609.47;;;0.21;56.13
63343;BME280;49465;57.664;39.686;2023-02-13T10:30:55;99602.56;;;0.21;56.14
63343;BME280;49465;57.664;39.686;2023-02-13T10:38:45;99607.09;;;-0.14;59.71
63343;BME280;49465;57.664;39.686;2023-02-13T10:41:40;99592.47;;;0.15;58.29
63343;BME280;49465;57.664;39.686;2023-02-13T10:49:49;99585.16;;;0.01;58.36
63343;BME280;49465;57.664;39.686;2023-02-13T10:52:30;99570.47;;;0.05;58.81
63343;BME280;49465;57.664;39.686;2023-02-13T11:00:58;99569.63;;;0.29;58.37
63343;BME280;49465;57.664;39.686;2023-02-13T11:03:41;99565.47;;;0.25;58.54
63343;BME280;49465;57.664;39.686;2023-02-13T11:06:14;99559.19;;;0.07;58.75
63343;BME280;49465;57.664;39.686;2023-02-13T11:08:45;99554.47;;;0.94;55.68
63343;BME280;49465;57.664;39.686;2023-02-13T11:11:35;99548.69;;;0.64;57.16
63343;BME280;49465;57.664;39.686;2023-02-13T11:14:20;99544.00;;;0.98;55.42
63343;BME280;49465;57.664;39.686;2023-02-13T11:16:54;99547.38;;;0.27;57.95
63343;BME280;49465;57.664;39.686;2023-02-13T11:22:10;99530.84;;;0.32;59.16
63343;BME280;49465;57.664;39.686;2023-02-13T11:24:40;99530.75;;;0.35;58.68
63343;BME280;49465;57.664;39.686;2023-02-13T11:27:09;99521.38;;;0.33;59.08
63343;BME280;49465;57.664;39.686;2023-02-13T11:29:56;99512.50;;;0.65;59.21
63343;BME280;49465;57.664;39.686;2023-02-13T11:32:32;99516.66;;;0.46;58.83
63343;BME280;49465;57.664;39.686;2023-02-13T11:35:26;99506.16;;;0.74;58.50
63343;BME280;49465;57.664;39.686;2023-02-13T11:38:21;99508.69;;;0.52;58.77
63343;BME280;49465;57.664;39.686;2023-02-13T11:40:52;99502.75;;;0.97;57.09
63343;BME280;49465;57.664;39.686;2023-02-13T11:43:49;99492.09;;;0.83;58.29
63343;BME280;49465;57.664;39.686;2023-02-13T11:46:27;99490.91;;;0.68;59.06
63343;BME280;49465;57.664;39.686;2023-02-13T11:49:06;99488.50;;;0.63;59.67
63343;BME280;49465;57.664;39.686;2023-02-13T11:51:46;99479.56;;;0.48;59.45
63343;BME280;49465;57.664;39.686;2023-02-13T11:54:28;99479.84;;;0.88;59.06
63343;BME280;49465;57.664;39.686;2023-02-13T11:57:22;99480.78;;;1.09;58.05
63343;BME280;49465;57.664;39.686;2023-02-13T11:59:51;99482.94;;;0.74;59.11
63343;BME280;49465;57.664;39.686;2023-02-13T12:04:51;99473.03;;;0.63;59.70
63343;BME280;49465;57.664;39.686;2023-02-13T12:07:29;99463.63;;;0.84;59.46
63343;BME280;49465;57.664;39.686;2023-02-13T12:10:23;99457.75;;;1.69;56.13
63343;BME280;49465;57.664;39.686;2023-02-13T12:13:14;99445.59;;;1.28;58.07
63343;BME280;49465;57.664;39.686;2023-02-13T12:16:01;99435.81;;;1.14;58.87
63343;BME280;49465;57.664;39.686;2023-02-13T12:18:39;99441.41;;;1.26;59.08
63343;BME280;49465;57.664;39.686;2023-02-13T12:24:29;99436.50;;;1.40;59.11
63343;BME280;49465;57.664;39.686;2023-02-13T12:27:18;99427.53;;;1.28;59.35
63343;BME280;49465;57.664;39.686;2023-02-13T12:33:02;99416.72;;;1.18;59.41
63343;BME280;49465;57.664;39.686;2023-02-13T12:35:49;99416.25;;;1.29;59.10
63343;BME280;49465;57.664;39.686;2023-02-13T12:38:47;99417.91;;;1.52;58.22
63343;BME280;49465;57.664;39.686;2023-02-13T12:44:10;99410.25;;;1.08;59.59
63343;BME280;49465;57.664;39.686;2023-02-13T12:55:48;99395.84;;;1.66;57.72
63343;BME280;49465;57.664;39.686;2023-02-13T12:58:37;99385.63;;;1.22;58.79
63343;BME280;49465;57.664;39.686;2023-02-13T13:04:18;99387.13;;;1.68;58.49
63343;BME280;49465;57.664;39.686;2023-02-13T13:26:49;99373.75;;;1.38;59.50
63343;BME280;49465;57.664;39.686;2023-02-13T13:29:26;99359.84;;;1.41;59.83
63343;BME280;49465;57.664;39.686;2023-02-13T13:32:01;99368.44;;;1.41;59.95
63343;BME280;49465;57.664;39.686;2023-02-13T13:34:46;99362.38;;;1.63;59.59
63343;BME280;49465;57.664;39.686;2023-02-13T13:40:19;99349.31;;;1.66;59.95
63343;BME280;49465;57.664;39.686;2023-02-13T13:43:14;99346.88;;;1.63;60.09
63343;BME280;49465;57.664;39.686;2023-02-13T13:48:30;99341.50;;;1.47;58.50
63343;BME280;49465;57.664;39.686;2023-02-13T13:50:59;99340.16;;;1.38;59.03
63343;BME280;49465;57.664;39.686;2023-02-13T13:53:27;99327.38;;;1.35;59.12
63343;BME280;49465;57.664;39.686;2023-02-13T13:58:38;99324.88;;;1.33;59.83
63343;BME280;49465;57.664;39.686;2023-02-13T14:03:48;99321.56;;;1.50;59.55
63343;BME280;49465;57.664;39.686;2023-02-13T14:06:20;99307.47;;;1.37;60.05
63343;BME280;49465;57.664;39.686;2023-02-13T14:13:57;99286.13;;;1.33;59.67
63343;BME280;49465;57.664;39.686;2023-02-13T14:16:43;99287.69;;;1.77;59.18
63343;BME280;49465;57.664;39.686;2023-02-13T14:24:58;99267.19;;;1.72;60.86
63343;BME280;49465;57.664;39.686;2023-02-13T14:27:36;99258.31;;;1.59;60.19
63343;BME280;49465;57.664;39.686;2023-02-13T14:33:29;99249.41;;;1.85;59.76
63343;BME280;49465;57.664;39.686;2023-02-13T14:39:28;99237.31;;;1.86;59.98
63343;BME280;49465;57.664;39.686;2023-02-13T14:42:04;99237.56;;;1.61;60.12
63343;BME280;49465;57.664;39.686;2023-02-13T14:45:01;99233.59;;;1.53;59.98
63343;BME280;49465;57.664;39.686;2023-02-13T14:47:50;99219.03;;;1.32;60.28
63343;BME280;49465;57.664;39.686;2023-02-13T14:50:29;99224.66;;;1.61;60.35
63343;BME280;49465;57.664;39.686;2023-02-13T14:53:09;99219.75;;;1.54;60.78
63343;BME280;49465;57.664;39.686;2023-02-13T14:55:47;99221.00;;;1.46;60.68
63343;BME280;49465;57.664;39.686;2023-02-13T14:58:41;99209.03;;;1.83;59.81
63343;BME280;49465;57.664;39.686;2023-02-13T15:01:29;99217.13;;;1.75;60.35
63343;BME280;49465;57.664;39.686;2023-02-13T15:04:11;99211.59;;;1.64;60.30
63343;BME280;49465;57.664;39.686;2023-02-13T15:06:44;99219.91;;;1.51;60.71
63343;BME280;49465;57.664;39.686;2023-02-13T15:09:37;99212.44;;;1.83;60.13
63343;BME280;49465;57.664;39.686;2023-02-13T15:12:34;99199.53;;;1.83;59.80
63343;BME280;49465;57.664;39.686;2023-02-13T15:15:25;99194.34;;;1.83;60.83
63343;BME280;49465;57.664;39.686;2023-02-13T15:18:23;99195.06;;;1.87;60.53
63343;BME280;49465;57.664;39.686;2023-02-13T15:20:57;99196.44;;;1.56;60.97
63343;BME280;49465;57.664;39.686;2023-02-13T15:23:31;99192.53;;;1.47;60.87
63343;BME280;49465;57.664;39.686;2023-02-13T15:26:06;99191.56;;;1.50;60.72
63343;BME280;49465;57.664;39.686;2023-02-13T15:28:34;99189.44;;;1.39;59.98
63343;BME280;49465;57.664;39.686;2023-02-13T15:31:23;99186.81;;;1.78;59.95
63343;BME280;49465;57.664;39.686;2023-02-13T15:33:55;99181.75;;;1.56;61.49
63343;BME280;49465;57.664;39.686;2023-02-13T15:36:25;99172.13;;;1.41;60.67
63343;BME280;49465;57.664;39.686;2023-02-13T15:39:01;99168.78;;;1.58;61.45
63343;BME280;49465;57.664;39.686;2023-02-13T15:41:55;99158.22;;;1.82;60.99
63343;BME280;49465;57.664;39.686;2023-02-13T15:44:36;99163.69;;;1.56;60.97
63343;BME280;49465;57.664;39.686;2023-02-13T15:47:08;99150.56;;;1.42;61.39